createdAt,value
2017-12-23T00:01:42.616Z,84.50
2017-12-23T00:04:11.347Z,84.44
2017-12-23T00:06:40.792Z,84.78
2017-12-23T00:09:09.722Z,85.20
2017-12-23T00:11:39.085Z,86.25
2017-12-23T00:14:07.757Z,87.39
2017-12-23T00:16:37.662Z,87.49
2017-12-23T00:19:06.348Z,86.89
2017-12-23T00:21:35.133Z,87.43
2017-12-23T00:24:03.819Z,86.75
2017-12-23T00:26:32.508Z,84.28
2017-12-23T00:29:01.101Z,86.80
2017-12-23T00:31:29.837Z,88.22
2017-12-23T00:33:58.567Z,88.93
2017-12-23T00:36:27.200Z,89.64
2017-12-23T00:38:56.572Z,89.01
2017-12-23T00:41:25.244Z,88.39
2017-12-23T00:43:53.835Z,88.76
2017-12-23T00:46:22.719Z,89.35
2017-12-23T00:48:51.416Z,89.49
2017-12-23T00:51:20.085Z,89.67
2017-12-23T00:53:48.832Z,90.13
2017-12-23T00:56:18.288Z,89.95
2017-12-23T00:58:46.975Z,90.18
2017-12-23T01:01:16.178Z,90.53
2017-12-23T01:03:44.866Z,90.66
2017-12-23T01:06:13.453Z,90.96
2017-12-23T01:08:42.239Z,90.61
2017-12-23T01:11:10.864Z,90.13
2017-12-23T01:13:40.283Z,89.72
2017-12-23T01:16:08.976Z,88.85
2017-12-23T01:18:37.699Z,89.17
2017-12-23T01:21:06.343Z,88.34
2017-12-23T01:23:35.078Z,87.77
2017-12-23T01:26:03.726Z,88.28
2017-12-23T01:28:32.448Z,88.10
2017-12-23T01:31:01.613Z,88.30
2017-12-23T01:33:30.281Z,88.37
2017-12-23T01:35:59.600Z,88.75
2017-12-23T01:38:28.466Z,88.37
2017-12-23T01:40:57.888Z,88.06
2017-12-23T01:43:27.331Z,87.54
2017-12-23T01:45:58.476Z,88.04
2017-12-23T01:48:34.844Z,87.72
2017-12-23T01:51:03.530Z,87.99
2017-12-23T01:53:32.216Z,87.61
2017-12-23T01:56:00.870Z,87.57
2017-12-23T01:58:29.863Z,87.55
2017-12-23T02:00:58.582Z,87.12
2017-12-23T02:03:27.224Z,88.13
2017-12-23T02:05:55.965Z,88.08
2017-12-23T02:08:24.585Z,88.96
2017-12-23T02:10:54.051Z,88.90
2017-12-23T02:13:22.934Z,89.24
2017-12-23T02:15:51.590Z,88.55
2017-12-23T02:18:20.208Z,87.93
2017-12-23T02:20:49.817Z,87.62
2017-12-23T02:23:18.388Z,87.46
2017-12-23T02:25:47.083Z,87.95
2017-12-23T02:28:15.874Z,88.38
2017-12-23T02:30:44.561Z,88.57
2017-12-23T02:33:13.142Z,88.58
2017-12-23T02:35:41.857Z,89.01
2017-12-23T02:38:10.409Z,88.12
2017-12-23T02:40:39.096Z,88.04
2017-12-23T02:43:08.259Z,87.79
2017-12-23T02:45:36.984Z,87.75
2017-12-23T02:48:05.531Z,88.25
2017-12-23T02:50:34.256Z,87.84
2017-12-23T02:53:02.927Z,88.40
2017-12-23T02:55:31.570Z,88.89
2017-12-23T02:58:01.591Z,89.71
2017-12-23T03:00:31.042Z,90.45
2017-12-23T03:02:59.677Z,90.11
2017-12-23T03:05:29.335Z,90.71
2017-12-23T03:07:58.022Z,91.09
2017-12-23T03:10:26.608Z,90.99
2017-12-23T03:12:55.392Z,91.19
2017-12-23T03:15:23.980Z,90.46
2017-12-23T03:17:52.682Z,90.44
2017-12-23T03:20:22.149Z,90.81
2017-12-23T03:22:50.714Z,90.72
2017-12-23T03:25:19.363Z,89.73
2017-12-23T03:27:48.250Z,89.04
2017-12-23T03:30:16.968Z,88.74
2017-12-23T03:32:45.609Z,89.14
2017-12-23T03:35:15.074Z,89.19
2017-12-23T03:37:43.695Z,89.72
2017-12-23T03:40:13.109Z,88.53
2017-12-23T03:42:42.564Z,87.66
2017-12-23T03:45:11.245Z,86.81
2017-12-23T03:47:39.888Z,87.37
2017-12-23T03:50:08.681Z,89.13
2017-12-23T03:52:37.400Z,88.26
2017-12-23T03:55:05.991Z,87.70
2017-12-23T03:57:34.681Z,87.30
2017-12-23T04:00:03.356Z,87.67
2017-12-23T04:02:32.042Z,88.13
2017-12-23T04:05:00.728Z,88.08
2017-12-23T04:07:29.399Z,89.35
2017-12-23T04:09:58.099Z,89.40
2017-12-23T04:12:26.695Z,89.90
2017-12-23T04:14:55.426Z,87.14
2017-12-23T04:17:24.154Z,88.30
2017-12-23T04:19:52.885Z,86.29
2017-12-23T04:22:22.346Z,86.98
2017-12-23T04:24:51.016Z,89.39
2017-12-23T04:27:20.786Z,90.33
2017-12-23T04:29:50.245Z,90.21
2017-12-23T04:32:18.820Z,90.19
2017-12-23T04:34:47.610Z,89.37
2017-12-23T04:37:16.258Z,88.51
2017-12-23T04:39:44.877Z,87.52
2017-12-23T04:42:13.609Z,87.21
2017-12-23T04:44:43.070Z,87.09
2017-12-23T04:47:11.703Z,86.87
2017-12-23T04:49:41.439Z,85.85
2017-12-23T04:52:10.146Z,85.46
2017-12-23T04:54:38.832Z,85.78
2017-12-23T04:57:07.823Z,86.12
2017-12-23T04:59:36.457Z,87.23
2017-12-23T05:02:05.920Z,87.54
2017-12-23T05:04:34.704Z,87.62
2017-12-23T05:07:03.290Z,87.23
2017-12-23T05:09:31.863Z,86.99
2017-12-23T05:12:00.564Z,87.74
2017-12-23T05:14:29.235Z,87.65
2017-12-23T05:16:57.922Z,88.37
2017-12-23T05:19:27.123Z,87.93
2017-12-23T05:21:55.765Z,88.30
2017-12-23T05:24:24.496Z,89.16
2017-12-23T05:26:53.195Z,90.07
2017-12-23T05:29:21.912Z,89.36
2017-12-23T05:31:51.372Z,87.53
2017-12-23T05:34:20.092Z,87.21
2017-12-23T05:36:49.556Z,86.70
2017-12-23T05:39:18.207Z,86.00
2017-12-23T05:41:46.927Z,84.74
2017-12-23T05:44:15.567Z,84.19
2017-12-23T05:46:44.258Z,84.23
2017-12-23T05:49:12.984Z,84.62
2017-12-23T05:51:41.618Z,85.20
2017-12-23T05:54:11.079Z,86.68
2017-12-23T05:56:39.755Z,87.33
2017-12-23T05:59:08.450Z,87.31
2017-12-23T06:01:37.028Z,87.02
2017-12-23T06:04:05.713Z,86.38
2017-12-23T06:06:34.398Z,85.67
2017-12-23T06:09:03.085Z,86.49
2017-12-23T06:11:32.078Z,88.35
2017-12-23T06:14:00.765Z,88.55
2017-12-23T06:16:29.352Z,87.89
2017-12-23T06:18:58.285Z,87.34
2017-12-23T06:21:27.702Z,86.41
2017-12-23T06:23:56.426Z,86.42
2017-12-23T06:26:25.158Z,85.69
2017-12-23T06:28:54.624Z,85.47
2017-12-23T06:31:23.164Z,85.49
2017-12-23T06:33:52.667Z,85.62
2017-12-23T06:36:21.392Z,85.58
2017-12-23T06:38:50.026Z,85.56
2017-12-23T06:41:19.544Z,85.54
2017-12-23T06:43:48.275Z,85.57
2017-12-23T06:46:16.962Z,85.79
2017-12-23T06:48:45.953Z,86.50
2017-12-23T06:51:14.534Z,86.47
2017-12-23T06:53:44.127Z,86.43
2017-12-23T06:56:13.119Z,86.32
2017-12-23T06:58:41.716Z,85.75
2017-12-23T07:01:10.661Z,85.16
2017-12-23T07:03:40.122Z,84.94
2017-12-23T07:06:08.805Z,84.51
2017-12-23T07:08:37.584Z,83.88
2017-12-23T07:11:06.231Z,84.06
2017-12-23T07:13:34.963Z,84.27
2017-12-23T07:16:04.003Z,83.77
2017-12-23T07:18:33.464Z,83.29
2017-12-23T07:21:02.041Z,81.94
2017-12-23T07:23:31.034Z,82.95
2017-12-23T07:25:59.581Z,82.41
2017-12-23T07:28:28.255Z,82.05
2017-12-23T07:30:58.112Z,81.97
2017-12-23T07:33:26.808Z,82.16
2017-12-23T07:35:55.494Z,82.27
2017-12-23T07:38:24.174Z,83.26
2017-12-23T07:40:52.867Z,82.66
2017-12-23T07:43:21.553Z,81.86
2017-12-23T07:45:50.279Z,80.31
2017-12-23T07:48:19.736Z,81.40
2017-12-23T07:50:48.342Z,80.94
2017-12-23T07:53:17.268Z,80.88
2017-12-23T07:55:46.716Z,80.35
2017-12-23T07:58:15.486Z,80.69
2017-12-23T08:00:44.237Z,80.72
2017-12-23T08:03:13.698Z,81.08
2017-12-23T08:05:42.349Z,80.45
2017-12-23T08:08:11.277Z,81.25
2017-12-23T08:10:39.963Z,81.45
2017-12-23T08:13:08.877Z,81.87
2017-12-23T08:15:37.838Z,81.56
2017-12-23T08:18:06.484Z,81.19
2017-12-23T08:20:35.894Z,80.65
2017-12-23T08:23:05.641Z,80.93
2017-12-23T08:25:34.227Z,81.05
2017-12-23T08:28:02.917Z,80.97
2017-12-23T08:30:31.699Z,80.36
2017-12-23T08:33:00.441Z,80.43
2017-12-23T08:35:29.894Z,80.15
2017-12-23T08:37:58.678Z,79.84
2017-12-23T08:40:27.322Z,79.95
2017-12-23T08:42:56.051Z,79.33
2017-12-23T08:45:25.007Z,77.55
2017-12-23T08:47:53.549Z,76.04
2017-12-23T08:50:22.216Z,75.49
2017-12-23T08:52:51.061Z,74.13
2017-12-23T08:55:19.795Z,75.43
2017-12-23T08:57:48.421Z,75.60
2017-12-23T09:00:18.081Z,71.30
2017-12-23T09:02:46.766Z,72.13
2017-12-23T09:05:15.459Z,73.09
2017-12-23T09:07:44.337Z,71.79
2017-12-23T09:10:13.033Z,71.24
2017-12-23T09:12:41.718Z,70.45
2017-12-23T09:15:10.405Z,69.01
2017-12-23T09:17:38.990Z,69.44
2017-12-23T09:20:07.628Z,68.61
2017-12-23T09:22:38.402Z,69.14
2017-12-23T09:25:07.088Z,69.31
2017-12-23T09:27:35.774Z,69.81
2017-12-23T09:30:04.668Z,69.50
2017-12-23T09:32:33.295Z,68.64
2017-12-23T09:35:02.753Z,68.43
2017-12-23T09:37:31.705Z,68.05
2017-12-23T09:40:00.398Z,67.06
2017-12-23T09:42:29.019Z,66.21
2017-12-23T09:44:57.703Z,68.58
2017-12-23T09:47:26.391Z,65.79
2017-12-23T09:49:55.079Z,65.48
2017-12-23T09:52:23.884Z,65.95
2017-12-23T09:54:52.545Z,66.45
2017-12-23T09:57:21.539Z,66.34
2017-12-23T09:59:50.490Z,65.32
2017-12-23T10:02:19.133Z,65.35
2017-12-23T10:04:47.902Z,64.43
2017-12-23T10:07:16.636Z,64.57
2017-12-23T10:09:46.098Z,64.37
2017-12-23T10:12:14.644Z,63.34
2017-12-23T10:14:43.318Z,61.43
2017-12-23T10:17:12.762Z,62.02
2017-12-23T10:19:41.455Z,60.81
2017-12-23T10:22:10.448Z,60.18
2017-12-23T10:24:39.133Z,60.35
2017-12-23T10:27:07.820Z,60.85
2017-12-23T10:29:36.649Z,60.52
2017-12-23T10:32:06.112Z,59.38
2017-12-23T10:34:34.798Z,59.62
2017-12-23T10:37:03.675Z,58.18
2017-12-23T10:39:32.220Z,58.25
2017-12-23T10:42:01.639Z,59.07
2017-12-23T10:44:30.509Z,54.06
2017-12-23T10:46:59.971Z,50.82
2017-12-23T10:49:28.641Z,53.80
2017-12-23T10:51:57.336Z,49.69
2017-12-23T10:54:26.030Z,49.81
2017-12-23T10:56:54.645Z,50.82
2017-12-23T10:59:23.288Z,51.32
2017-12-23T11:01:51.976Z,52.85
2017-12-23T11:04:20.561Z,50.06
2017-12-23T11:06:49.555Z,49.81
2017-12-23T11:09:18.176Z,46.75
2017-12-23T11:11:47.604Z,44.31
2017-12-23T11:14:16.537Z,46.58
2017-12-23T11:16:45.164Z,45.83
2017-12-23T11:19:14.619Z,46.83
2017-12-23T11:21:43.414Z,47.18
2017-12-23T11:24:12.912Z,45.83
2017-12-23T11:26:41.597Z,47.22
2017-12-23T11:29:10.688Z,47.00
2017-12-23T11:31:39.386Z,47.33
2017-12-23T11:34:07.961Z,48.47
2017-12-23T11:36:36.757Z,47.91
2017-12-23T11:39:05.451Z,47.97
2017-12-23T11:41:34.130Z,49.50
2017-12-23T11:44:02.962Z,49.02
2017-12-23T11:46:32.421Z,48.92
2017-12-23T11:49:01.041Z,48.93
2017-12-23T11:51:29.792Z,48.91
2017-12-23T11:53:58.478Z,49.57
2017-12-23T11:56:27.053Z,50.08
2017-12-23T11:58:56.048Z,48.94
2017-12-23T12:01:25.413Z,49.18
2017-12-23T12:03:54.001Z,51.25
2017-12-23T12:06:23.044Z,50.08
2017-12-23T12:08:52.503Z,49.56
2017-12-23T12:11:21.188Z,49.51
2017-12-23T12:13:50.072Z,48.57
2017-12-23T12:16:18.757Z,49.56
2017-12-23T12:18:47.443Z,48.71
2017-12-23T12:21:16.238Z,46.52
2017-12-23T12:23:44.925Z,47.67
2017-12-23T12:26:13.559Z,46.87
2017-12-23T12:28:43.053Z,45.04
2017-12-23T12:31:12.408Z,45.80
2017-12-23T12:33:40.994Z,46.16
2017-12-23T12:36:09.730Z,46.93
2017-12-23T12:38:39.190Z,48.69
2017-12-23T12:41:07.877Z,49.65
2017-12-23T12:43:36.909Z,50.13
2017-12-23T12:46:06.368Z,49.23
2017-12-23T12:48:34.954Z,46.18
2017-12-23T12:51:03.688Z,46.55
2017-12-23T12:53:33.149Z,46.89
2017-12-23T12:56:01.723Z,47.28
2017-12-23T12:58:30.716Z,47.48
2017-12-23T13:00:59.403Z,48.20
2017-12-23T13:03:28.086Z,49.82
2017-12-23T13:05:56.943Z,48.41
2017-12-23T13:08:25.666Z,46.96
2017-12-23T13:10:54.304Z,48.01
2017-12-23T13:13:23.794Z,45.44
2017-12-23T13:15:53.259Z,45.66
2017-12-23T13:18:21.836Z,47.22
2017-12-23T13:20:50.624Z,48.10
2017-12-23T13:23:19.315Z,47.85
2017-12-23T13:25:47.860Z,48.78
2017-12-23T13:28:16.752Z,48.07
2017-12-23T13:30:45.420Z,47.90
2017-12-23T13:33:14.882Z,49.42
2017-12-23T13:35:43.730Z,49.68
2017-12-23T13:38:12.398Z,51.26
2017-12-23T13:40:41.860Z,49.58
2017-12-23T13:43:10.646Z,50.45
2017-12-23T13:45:39.331Z,52.61
2017-12-23T13:48:07.968Z,53.43
2017-12-23T13:50:37.416Z,53.58
2017-12-23T13:53:06.003Z,54.25
2017-12-23T13:55:34.646Z,54.00
2017-12-23T13:58:03.440Z,54.12
2017-12-23T14:00:32.107Z,51.66
2017-12-23T14:03:01.568Z,52.63
2017-12-23T14:05:30.353Z,51.36
2017-12-23T14:07:59.038Z,52.59
2017-12-23T14:10:27.678Z,52.94
2017-12-23T14:12:57.640Z,53.28
2017-12-23T14:15:26.264Z,54.10
2017-12-23T14:17:55.625Z,54.34
2017-12-23T14:20:24.673Z,54.31
2017-12-23T14:22:53.402Z,54.54
2017-12-23T14:25:22.089Z,54.21
2017-12-23T14:27:50.798Z,54.78
2017-12-23T14:30:19.462Z,54.67
2017-12-23T14:32:48.145Z,55.53
2017-12-23T14:35:16.830Z,55.29
2017-12-23T14:37:45.472Z,56.84
2017-12-23T14:40:14.154Z,57.31
2017-12-23T14:42:43.712Z,56.51
2017-12-23T14:45:12.397Z,56.35
2017-12-23T14:47:40.984Z,57.46
2017-12-23T14:50:09.812Z,57.01
2017-12-23T14:52:39.277Z,58.12
2017-12-23T14:55:07.943Z,59.80
2017-12-23T14:57:36.636Z,60.34
2017-12-23T15:00:05.328Z,60.28
2017-12-23T15:02:33.909Z,61.51
2017-12-23T15:05:02.595Z,61.93
2017-12-23T15:07:31.282Z,61.60
2017-12-23T15:09:59.868Z,61.86
2017-12-23T15:12:28.863Z,61.64
2017-12-23T15:14:57.440Z,61.65
2017-12-23T15:17:26.027Z,61.94
2017-12-23T15:19:54.770Z,62.39
2017-12-23T15:22:24.267Z,62.43
2017-12-23T15:24:53.728Z,62.79
2017-12-23T15:27:22.576Z,62.27
2017-12-23T15:29:51.297Z,62.00
2017-12-23T15:32:19.936Z,62.57
2017-12-23T15:34:50.106Z,63.34
2017-12-23T15:37:18.794Z,63.23
2017-12-23T15:39:47.373Z,63.26
2017-12-23T15:42:16.208Z,62.79
2017-12-23T15:44:45.672Z,63.56
2017-12-23T15:47:14.290Z,64.11
2017-12-23T15:49:44.470Z,65.04
2017-12-23T15:52:13.156Z,65.13
2017-12-23T15:54:41.842Z,64.98
2017-12-23T15:57:10.933Z,65.16
2017-12-23T15:59:39.630Z,65.86
2017-12-23T16:02:08.246Z,66.11
2017-12-23T16:04:37.100Z,66.04
2017-12-23T16:07:05.787Z,65.87
2017-12-23T16:09:34.374Z,67.01
2017-12-23T16:12:03.060Z,67.34
2017-12-23T16:14:31.745Z,67.96
2017-12-23T16:17:00.377Z,68.75
2017-12-23T16:19:29.872Z,69.13
2017-12-23T16:21:59.343Z,70.54
2017-12-23T16:24:27.980Z,71.40
2017-12-23T16:26:57.481Z,72.68
2017-12-23T16:29:26.212Z,73.31
2017-12-23T16:31:54.836Z,73.96
2017-12-23T16:34:24.353Z,74.43
2017-12-23T16:36:53.801Z,74.53
2017-12-23T16:39:22.597Z,73.93
2017-12-23T16:41:51.432Z,74.71
2017-12-23T16:44:20.890Z,74.98
2017-12-23T16:46:49.576Z,75.08
2017-12-23T16:49:18.311Z,75.75
2017-12-23T16:51:47.760Z,75.76
2017-12-23T16:54:16.349Z,76.55
2017-12-23T16:56:45.439Z,76.09
2017-12-23T16:59:14.125Z,77.04
2017-12-23T17:01:42.814Z,77.32
2017-12-23T17:04:11.438Z,76.26
2017-12-23T17:06:40.906Z,76.76
2017-12-23T17:09:09.592Z,77.04
2017-12-23T17:11:38.476Z,77.66
2017-12-23T17:14:07.161Z,77.46
2017-12-23T17:16:35.847Z,77.62
2017-12-23T17:19:04.642Z,77.60
2017-12-23T17:21:33.329Z,77.68
2017-12-23T17:24:02.006Z,78.07
2017-12-23T17:26:30.753Z,78.13
2017-12-23T17:29:17.869Z,76.40
2017-12-23T17:31:47.461Z,77.19
2017-12-23T17:34:16.824Z,77.29
2017-12-23T17:36:45.609Z,77.92
2017-12-23T17:39:14.311Z,78.21
2017-12-23T17:41:42.982Z,77.97
2017-12-23T17:44:11.624Z,77.91
2017-12-23T17:46:40.518Z,77.43
2017-12-23T17:49:09.247Z,77.48
2017-12-23T17:51:37.933Z,77.17
2017-12-23T17:54:06.926Z,77.19
2017-12-23T17:56:36.435Z,77.26
2017-12-23T17:59:04.977Z,77.42
2017-12-23T18:01:33.664Z,77.51
2017-12-23T18:04:02.232Z,76.92
2017-12-23T18:06:31.631Z,76.66
2017-12-23T18:09:01.131Z,77.03
2017-12-23T18:11:30.697Z,77.53
2017-12-23T18:13:59.386Z,78.28
2017-12-23T18:16:28.328Z,75.81
2017-12-23T18:18:57.724Z,76.38
2017-12-23T18:21:27.142Z,78.06
2017-12-23T18:23:56.009Z,78.74
2017-12-23T18:26:25.373Z,78.73
2017-12-23T18:28:53.959Z,80.35
2017-12-23T18:31:22.687Z,80.49
2017-12-23T18:33:52.904Z,81.29
2017-12-23T18:36:22.473Z,82.67
2017-12-23T18:38:51.258Z,82.03
2017-12-23T18:41:19.934Z,83.03
2017-12-23T18:43:48.625Z,84.18
2017-12-23T18:46:17.370Z,84.89
2017-12-23T18:48:46.038Z,85.50
2017-12-23T18:51:15.451Z,85.99
2017-12-23T18:53:45.009Z,86.51
2017-12-23T18:56:13.640Z,86.22
2017-12-23T18:58:43.104Z,85.87
2017-12-23T19:01:11.895Z,85.53
2017-12-23T19:03:40.673Z,85.38
2017-12-23T19:06:09.360Z,85.32
2017-12-23T19:08:38.155Z,84.71
2017-12-23T19:11:06.793Z,82.84
2017-12-23T19:13:35.526Z,84.30
2017-12-23T19:16:04.311Z,85.50
2017-12-23T19:18:32.998Z,85.12
2017-12-23T19:21:01.584Z,83.87
2017-12-23T19:23:30.269Z,83.85
2017-12-23T19:25:58.955Z,85.66
2017-12-23T19:28:27.740Z,85.86
2017-12-23T19:30:56.438Z,84.68
2017-12-23T19:33:25.055Z,84.23
2017-12-23T19:35:54.511Z,84.72
2017-12-23T19:38:24.011Z,84.87
2017-12-23T19:40:52.804Z,84.44
2017-12-23T19:43:21.495Z,84.50
2017-12-23T19:45:50.669Z,84.80
2017-12-23T19:48:19.378Z,84.53
2017-12-23T19:50:47.964Z,84.10
2017-12-23T19:53:16.772Z,83.41
2017-12-23T19:55:45.440Z,82.37
2017-12-23T19:58:14.107Z,81.30
2017-12-23T20:00:43.114Z,82.84
2017-12-23T20:03:11.800Z,82.58
2017-12-23T20:05:40.376Z,83.17
2017-12-23T20:08:09.272Z,84.13
2017-12-23T20:10:37.921Z,84.39
2017-12-23T20:13:06.642Z,84.60
2017-12-23T20:15:35.482Z,84.38
2017-12-23T20:18:04.837Z,84.55
2017-12-23T20:20:33.422Z,84.52
2017-12-23T20:23:02.306Z,85.27
2017-12-23T20:25:30.896Z,85.42
2017-12-23T20:27:59.580Z,85.09
2017-12-23T20:30:28.314Z,85.45
2017-12-23T20:32:57.774Z,85.40
2017-12-23T20:35:26.398Z,83.11
2017-12-23T20:37:55.867Z,83.48
2017-12-23T20:40:24.429Z,84.86
2017-12-23T20:42:53.131Z,85.26
2017-12-23T20:45:21.809Z,85.85
2017-12-23T20:47:50.354Z,85.96
2017-12-23T20:50:19.030Z,84.61
2017-12-23T20:52:48.523Z,84.88
2017-12-23T20:55:17.987Z,84.10
2017-12-23T20:57:46.673Z,81.30
2017-12-23T21:00:15.568Z,81.39
2017-12-23T21:02:44.194Z,82.62
2017-12-23T21:05:13.652Z,82.76
2017-12-23T21:07:42.447Z,81.03
2017-12-23T21:10:11.133Z,80.32
2017-12-23T21:12:39.819Z,80.59
2017-12-23T21:15:08.409Z,80.41
2017-12-23T21:17:37.191Z,80.08
2017-12-23T21:20:05.921Z,79.91
2017-12-23T21:22:35.383Z,80.04
2017-12-23T21:25:04.059Z,80.46
2017-12-23T21:27:32.746Z,80.62
2017-12-23T21:30:01.542Z,80.53
2017-12-23T21:32:30.179Z,79.62
2017-12-23T21:34:59.627Z,80.55
2017-12-23T21:37:28.731Z,81.63
2017-12-23T21:39:57.363Z,81.40
2017-12-23T21:42:25.991Z,81.19
2017-12-23T21:44:54.776Z,81.66
2017-12-23T21:47:23.413Z,80.87
2017-12-23T21:49:52.871Z,80.54
2017-12-23T21:52:21.551Z,81.01
2017-12-23T21:54:50.243Z,81.41
2017-12-23T21:57:19.066Z,81.90
2017-12-23T21:59:48.677Z,82.26
2017-12-23T22:02:18.144Z,82.25
2017-12-23T22:04:46.833Z,83.70
2017-12-23T22:07:16.536Z,84.22
2017-12-23T22:09:45.080Z,83.90
2017-12-23T22:12:13.809Z,83.19
2017-12-23T22:14:42.557Z,82.52
2017-12-23T22:17:11.281Z,80.40
2017-12-23T22:19:39.966Z,80.39
2017-12-23T22:22:08.660Z,78.94
2017-12-23T22:24:37.378Z,78.57
2017-12-23T22:27:06.793Z,79.01
2017-12-23T22:29:36.289Z,79.75
2017-12-23T22:32:05.754Z,80.51
2017-12-23T22:34:34.370Z,81.21
2017-12-23T22:37:03.015Z,81.17
2017-12-23T22:39:31.701Z,81.18
2017-12-23T22:42:00.387Z,81.18
2017-12-23T22:44:29.544Z,79.22
2017-12-23T22:46:58.275Z,79.34
2017-12-23T22:49:26.961Z,79.73
2017-12-23T22:51:55.954Z,79.91
2017-12-23T22:54:24.592Z,79.15
2017-12-23T22:56:53.325Z,77.34
2017-12-23T22:59:22.110Z,75.43
2017-12-23T23:01:50.796Z,76.91
2017-12-23T23:04:19.481Z,77.27
2017-12-23T23:06:48.069Z,77.46
2017-12-23T23:09:16.755Z,77.67
2017-12-23T23:11:45.441Z,78.58
2017-12-23T23:14:14.225Z,79.88
2017-12-23T23:16:42.911Z,80.64
2017-12-23T23:19:11.597Z,79.28
2017-12-23T23:21:41.185Z,78.61
2017-12-23T23:24:09.853Z,77.78
2017-12-23T23:26:38.577Z,76.91
2017-12-23T23:29:07.262Z,77.05
2017-12-23T23:31:35.950Z,77.47
2017-12-23T23:34:04.537Z,78.15
2017-12-23T23:36:33.221Z,78.28
2017-12-23T23:39:01.908Z,78.14
2017-12-23T23:41:31.323Z,78.69
2017-12-23T23:44:01.083Z,78.80
2017-12-23T23:46:29.769Z,79.61
2017-12-23T23:48:58.404Z,80.23
2017-12-23T23:51:27.448Z,80.71
2017-12-23T23:53:56.053Z,81.25
2017-12-23T23:56:24.807Z,80.74
2017-12-23T23:58:53.550Z,80.91
